Tiempo atmosférico en la estación meteorológica de Maspalomas, C. Insular Turismo, Las Palmas (45 m.)



Fecha
DESCASC
Temp. máxima en grados centígrados (hora)
DESCASC
Temp. mínima en grados centígrados (hora)
DESCASC
Temp. media en grados centígrados
DESCASC
Racha de viento máxima en m/sg (hora)
DESCASC
Velocidad máxima media en intervalos de 10 minutos(hora)
DESCASC
Precipitaciones diarias en mm
DESCASC
Precipitaciones de 00:00 a 06:00 en mm
DESCASC
Precipitaciones de 06:00 a 12:00 en mm
DESCASC
Precipitaciones de 12:00 a 18:00 en mm
DESCASC
Precipitaciones de 18:00 a 24:00 en mm
DESCASC
07-01-2021 21.9 (13:30) 19.2 (00:00) 20.6 17.5 (12:40) 9.72 (12:50) 6 0 0.2 0.2 5.6
13-01-2021 19.5 (14:40) 15.2 (00:00) 17.3 12.22 (13:40) 6.39 (14:20) 3.4 0 3.4 0 0
06-01-2021 22.6 (11:30) 19.3 (00:00) 20.9 15.56 (17:10) 8.61 (16:20) 0.8 0 0 0.6 0.2
04-01-2021 19.5 (13:10) 16.8 (00:00) 18.1 7.5 (14:40) 4.44 (18:40) 0.8 0 0 0 0.8
05-01-2021 22.4 (13:30) 18 (00:00) 20.2 11.11 (13:40) 7.22 (14:30) 0.6 0.2 0 0.2 0.2
08-01-2021 22.6 (15:00) 16.4 (00:00) 19.5 13.33 (02:50) 8.06 (05:20) 0.4 0.4 0 0 0
09-01-2021 20.1 (14:10) 14.5 (00:00) 17.3 9.72 (14:10) 5.28 (14:00) 0.2 0.2 0 0 0
12-01-2021 18.6 (13:00) 14.8 (00:00) 16.7 9.44 (13:20) 4.44 (12:00) 0.2 0 0 0.2 0
14-01-2021 17.6 (09:50) 15.2 (01:10) 16.4 9.17 (22:50) 5 (22:50) 0 0 0 0 0
15-01-2021 19.8 (14:30) 16.2 (00:00) 18 13.89 (21:40) 6.39 (06:00) 0 0 0 0 0
16-01-2021 20.4 (15:30) 14.4 (00:00) 17.4 13.61 (11:50) 6.11 (10:50) 0 0 0 0 0
11-01-2021 20 (12:40) 14.1 (00:00) 17.1 8.06 (19:30) 4.44 (19:20) 0 0 0 0 0
17-01-2021 19.4 (11:10) 13.6 (00:00) 16.5 12.22 (13:20) 5.83 (14:00) 0 0 0 0 0
18-01-2021 20 (12:00) 12.1 (00:00) 16.1 8.61 (13:30) 4.44 (13:30) 0 0 0 0 0
19-01-2021 18.8 (12:00) 12.3 (00:00) 15.5 7.22 (14:20) 4.17 (12:50) 0 0 0 0 0
20-01-2021 19.9 (16:50) 12.7 (00:00) 16.3 6.11 (15:20) 3.61 (11:40) 0 0 0 0 0
23-12-2020 21.4 (10:30) 16.2 (00:00) 18.8 9.44 (23:00) 5.28 (23:00) 0 0 0 0 0
21-01-2021 21 (17:20) 14.7 (00:00) 17.8 10 (14:40) 5.28 (14:30) 0 0 0 0 0
10-01-2021 19.2 (17:10) 14.1 (04:10) 16.7 6.94 (14:00) 4.44 (14:00) 0 0 0 0 0
03-01-2021 19.1 (12:40) 16.3 (00:00) 17.7 7.5 (15:30) 3.33 (00:10) 0 0 0 0 0
02-01-2021 20.1 (12:20) 14.7 (00:00) 17.4 9.44 (12:30) 4.72 (12:40) 0 0 0 0 0
01-01-2021 20.5 (11:40) 16.3 (00:00) 18.4 10.56 (13:10) 5.28 (09:30) 0 0 0 0 0
31-12-2020 20.9 (12:40) 15.4 (00:00) 18.1 9.44 (14:00) 4.72 (13:30) 0 0 0 0 0
30-12-2020 20.2 (12:30) 16 (00:00) 18.1 7.22 (17:00) 3.61 (13:30) 0 0 0 0 0
29-12-2020 20.4 (11:10) 15.5 (00:00) 17.9 10 (12:30) 5.28 (13:50) 0 0 0 0 0
28-12-2020 22.5 (14:20) 15.8 (00:00) 19.2 6.94 (12:50) 4.44 (12:50) 0 0 0 0 0
27-12-2020 21.6 (17:00) 16.2 (00:00) 18.9 7.22 (12:20) 4.17 (12:30) 0 0 0 0 0
26-12-2020 22.7 (14:50) 16.7 (00:00) 19.7 5.83 (14:10) 3.33 (14:00) 0 0 0 0 0
25-12-2020 21.7 (11:30) 19.1 (00:00) 20.4 9.72 (00:10) 4.72 (12:00) 0 0 0 0 0
24-12-2020 20.7 (11:20) 18.8 (00:00) 19.8 11.94 (05:20) 6.11 (05:30) 0 0 0 0 0

Gráficas

Temp. máximas Temp. mínimas Temp. medias Precipitaciones Rachas de viento máximas Velocidades máximas media en intervalos de 10 minutos

Datos horarios

Fecha y hora oficial Temperatura (ºC) Velocidad del viento (km/h) Dirección del viento Racha (km/h) Dirección de racha Precipitación (mm) Presión (hPa) Tendencia (hPa) Humedad (%)
2021-01-21 23:00:00 17.2 0 Calma 13 Sur 0 -- -- 83
2021-01-21 22:00:00 17.9 2 Sudoeste 9 Sudoeste 0 -- -- 84
2021-01-21 21:00:00 18.4 0 Calma 6 Oeste 0 -- -- 80
2021-01-21 20:00:00 19 5 Oeste 15 Oeste 0 -- -- 78
2021-01-21 19:00:00 19.4 8 Oeste 21 Oeste 0 -- -- 73
2021-01-21 18:00:00 20.4 14 Sudoeste 27 Nordeste 0 -- -- 71
2021-01-21 17:00:00 20.6 14 Este 30 Este 0 -- -- 76
2021-01-21 16:00:00 20.5 15 Este 33 Este 0 -- -- 76
2021-01-21 15:00:00 20.4 13 Este 36 Este 0 -- -- 76
2021-01-21 14:00:00 20.1 13 Este 22 Este 0 -- -- 76
2021-01-21 13:00:00 19.5 12 Este 23 Este 0 -- -- 77
2021-01-21 12:00:00 20.7 9 Este 21 Noroeste 0 -- -- 67
2021-01-21 11:00:00 19.7 7 Norte 14 Este 0 -- -- 69
2021-01-21 10:00:00 18 5 Este 15 Norte 0 -- -- 76
2021-01-21 09:00:00 15.2 5 Norte 14 Norte 0 -- -- 75
2021-01-21 08:00:00 15 5 Oeste 16 Noroeste 0 -- -- 75
2021-01-21 07:00:00 15.4 6 Norte 12 Noroeste 0 -- -- 75
2021-01-21 06:00:00 14.9 9 Norte 13 Norte 0 -- -- 78
2021-01-21 05:00:00 15 5 Noroeste 9 Noroeste 0 -- -- 80
2021-01-21 04:00:00 15 3 Norte 9 Norte 0 -- -- 79
2021-01-21 03:00:00 15.4 5 Norte 9 Norte 0 -- -- 78
2021-01-21 02:00:00 15.8 5 Norte 18 Noroeste 0 -- -- 77
2021-01-21 01:00:00 16.2 12 Noroeste 23 Noroeste 0 -- -- 78
2021-01-21 00:00:00 16.5 5 Noroeste 13 Nordeste 0 -- -- 76
2021-01-20 23:00:00 17.1 5 Este 10 Nordeste 0 -- -- 74
2021-01-20 22:00:00 17.6 5 Este 11 Este 0 -- -- 73
2021-01-20 21:00:00 17.9 0 Calma 8 Este 0 -- -- 75
2021-01-20 20:00:00 17.6 3 Sur 6 Sudeste 0 -- -- 74
2021-01-20 19:00:00 17.5 3 Sudeste 9 Sudeste 0 -- -- 73
2021-01-20 18:00:00 18.5 5 Sur 16 Sur 0 -- -- 67
2021-01-20 17:00:00 19.9 9 Sudoeste 16 Sudoeste 0 -- -- 63
2021-01-20 16:00:00 18.9 8 Sudeste 22 Este 0 -- -- 69
2021-01-20 15:00:00 18.9 9 Sudeste 21 Sudeste 0 -- -- 67
2021-01-20 14:00:00 18.6 8 Sudeste 18 Este 0 -- -- 68
2021-01-20 13:00:00 18.7 12 Sudeste 20 Sudeste 0 -- -- 68
2021-01-20 12:00:00 18.8 11 Este 18 Sudeste 0 -- -- 66
2021-01-20 11:00:00 18.3 8 Sudeste 12 Este 0 -- -- 64
2021-01-20 10:00:00 17.9 4 Sudeste 8 Sudeste 0 -- -- 70
2021-01-20 09:00:00 14.6 5 Norte 11 Norte 0 -- -- 67
2021-01-20 08:00:00 13 6 Norte 10 Norte 0 -- -- 64
2021-01-20 07:00:00 13 2 Norte 6 Norte 0 -- -- 73
2021-01-20 06:00:00 13.3 4 Norte 12 Norte 0 -- -- 67
2021-01-20 05:00:00 13.8 5 Norte 12 Noroeste 0 -- -- 64
2021-01-20 04:00:00 14.1 6 Norte 10 Noroeste 0 -- -- 72
2021-01-20 03:00:00 14.4 6 Noroeste 12 Noroeste 0 -- -- 79
2021-01-20 02:00:00 14.5 5 Noroeste 9 Noroeste 0 -- -- 80
2021-01-20 01:00:00 14.7 5 Norte 8 Norte 0 -- -- 80
2021-01-20 00:00:00 15.2 4 Norte 8 Norte 0 -- -- 79
2021-01-19 23:00:00 16 3 Norte 7 Nordeste 0 -- -- 77
2021-01-19 22:00:00 16.7 4 Nordeste 10 Este 0 -- -- 75
2021-01-19 21:00:00 16.8 5 Nordeste 10 Este 0 -- -- 76
2021-01-19 20:00:00 17.3 5 Este 17 Este 0 -- -- 74
2021-01-19 19:00:00 17.6 9 Este 17 Este 0 -- -- 73
2021-01-19 18:00:00 17.9 9 Este 17 Este 0 -- -- 73
2021-01-19 17:00:00 18.3 10 Este 21 Este 0 -- -- 71
2021-01-19 16:00:00 18.3 14 Sudeste 21 Sudeste 0 -- -- 71
2021-01-19 15:00:00 18.3 14 Sudeste 26 Este 0 -- -- 69
2021-01-19 14:00:00 18.5 14 Este 24 Este 0 -- -- 67
2021-01-19 13:00:00 18.4 15 Este 24 Este 0 -- -- 69
2021-01-19 12:00:00 18.8 13 Este 24 Este 0 -- -- 65
2021-01-19 11:00:00 18.7 10 Este 21 Este 0 -- -- 65
2021-01-19 10:00:00 17.7 9 Nordeste 19 Nordeste 0 -- -- 66
2021-01-19 09:00:00 14.8 4 Norte 10 Norte 0 -- -- 62
2021-01-19 08:00:00 12.8 5 Norte 12 Norte 0 -- -- 52
2021-01-19 07:00:00 12.9 5 Norte 10 Norte 0 -- -- 54
2021-01-19 06:00:00 12.3 4 Norte 8 Norte 0 -- -- 53
2021-01-19 05:00:00 13 8 Norte 10 Norte 0 -- -- 52
2021-01-19 04:00:00 12.9 4 Norte 8 Norte 0 -- -- 66
2021-01-19 03:00:00 13.7 6 Norte 10 Norte 0 -- -- 61
2021-01-19 02:00:00 13.5 4 Norte 6 Norte 0 -- -- 72
2021-01-19 01:00:00 14.2 0 Calma 6 Norte 0 -- -- 75
2021-01-19 00:00:00 14.5 4 Norte 9 Norte 0 -- -- 73
2021-01-18 23:00:00 14.9 3 Norte 5 Norte 0 -- -- 73
2021-01-18 22:00:00 15.9 3 Nordeste 9 Este 0 -- -- 77
2021-01-18 21:00:00 16.4 2 Este 9 Este 0 -- -- 76
2021-01-18 20:00:00 16.9 3 Nordeste 16 Este 0 -- -- 75
2021-01-18 19:00:00 17.5 8 Este 24 Este 0 -- -- 75
2021-01-18 18:00:00 17.9 11 Este 22 Este 0 -- -- 72
2021-01-18 17:00:00 18.5 12 Este 27 Sudeste 0 -- -- 67
2021-01-18 16:00:00 18.8 14 Este 29 Este 0 -- -- 65
2021-01-18 15:00:00 19.3 14 Este 28 Este 0 -- -- 64
2021-01-18 14:00:00 19.4 14 Este 31 Este 0 -- -- 67
2021-01-18 13:00:00 19.8 13 Este 28 Este 0 -- -- 61
2021-01-18 12:00:00 20 12 Este 29 Este 0 -- -- 59
2021-01-18 11:00:00 19.7 7 Este 22 Nordeste 0 -- -- 57
2021-01-18 10:00:00 17.6 12 Nordeste 28 Nordeste 0 -- -- 65
2021-01-18 09:00:00 14 6 Norte 14 Norte 0 -- -- 41
2021-01-18 08:00:00 12.1 5 Norte 10 Norte 0 -- -- 45
2021-01-18 07:00:00 12.4 5 Norte 10 Norte 0 -- -- 47
2021-01-18 06:00:00 12.4 5 Norte 9 Norte 0 -- -- 46
2021-01-18 05:00:00 12.3 4 Norte 9 Noroeste 0 -- -- 49
2021-01-18 04:00:00 12.9 4 Norte 8 Norte 0 -- -- 63
2021-01-18 03:00:00 13.1 4 Norte 7 Norte 0 -- -- 72
2021-01-18 02:00:00 13.4 5 Norte 7 Norte 0 -- -- 65
2021-01-18 01:00:00 13.9 3 Norte 10 Noroeste 0 -- -- 71
2021-01-18 00:00:00 14.3 3 Noroeste 10 Norte 0 -- -- 79
2021-01-17 23:00:00 15.1 5 Norte 8 Norte 0 -- -- 77
2021-01-17 22:00:00 15.5 3 Nordeste 6 Norte 0 -- -- 75
2021-01-17 21:00:00 15.9 2 Este 6 Nordeste 0 -- -- 72
2021-01-17 20:00:00 16.8 3 Nordeste 12 Este 0 -- -- 69
2021-01-17 19:00:00 17.6 7 Noroeste 24 Este 0 -- -- 67
2021-01-17 18:00:00 18.1 11 Este 30 Nordeste 0 -- -- 65
2021-01-17 17:00:00 18.5 14 Este 33 Este 0 -- -- 65
2021-01-17 16:00:00 18.6 15 Este 35 Este 0 -- -- 65
2021-01-17 15:00:00 18.7 16 Este 36 Sudeste 0 -- -- 63
2021-01-17 14:00:00 18.6 21 Este 44 Este 0 -- -- 65
2021-01-17 13:00:00 18.8 17 Este 39 Nordeste 0 -- -- 64
2021-01-17 12:00:00 18.8 17 Este 36 Este 0 -- -- 66
2021-01-17 11:00:00 19.3 15 Este 32 Este 0 -- -- 56
2021-01-17 10:00:00 17.9 9 Nordeste 20 Nordeste 0 -- -- 62
2021-01-17 09:00:00 14.5 7 Norte 17 Noroeste 0 -- -- 71
2021-01-17 08:00:00 13.8 5 Norte 14 Norte 0 -- -- 72
2021-01-17 07:00:00 13.8 6 Norte 18 Norte 0 -- -- 72
2021-01-17 06:00:00 14.2 5 Noroeste 24 Nordeste 0 -- -- 70
2021-01-17 05:00:00 15.3 8 Norte 27 Nordeste 0 -- -- 65
2021-01-17 04:00:00 15.9 6 Nordeste 32 Nordeste 0 -- -- 63
2021-01-17 03:00:00 16.1 9 Nordeste 30 Este 0 -- -- 64
2021-01-17 02:00:00 16.4 10 Este 30 Nordeste 0 -- -- 61
2021-01-17 01:00:00 16.7 14 Nordeste 33 Nordeste 0 -- -- 60
2021-01-17 00:00:00 16.6 10 Nordeste 27 Nordeste 0 -- -- 60
2021-01-16 23:00:00 16.9 13 Nordeste 30 Nordeste 0 -- -- 61
2021-01-16 22:00:00 17 8 Nordeste 20 Este 0 -- -- 62
2021-01-16 21:00:00 17.2 11 Nordeste 21 Este 0 -- -- 65
2021-01-16 20:00:00 17.4 10 Nordeste 23 Nordeste 0 -- -- 71
2021-01-16 19:00:00 17.9 13 Nordeste 26 Nordeste 0 -- -- 69
2021-01-16 18:00:00 19 6 Nordeste 30 Nordeste 0 -- -- 57
2021-01-16 17:00:00 19.8 15 Nordeste 39 Nordeste 0 -- -- 51
2021-01-16 16:00:00 20.2 17 Nordeste 44 Sudeste 0 -- -- 57
2021-01-16 15:00:00 20 17 Este 43 Este 0 -- -- 58
2021-01-16 14:00:00 20.2 19 Este 46 Este 0 -- -- 53
2021-01-16 13:00:00 19.8 18 Este 45 Este 0 -- -- 60
2021-01-16 12:00:00 19.9 14 Nordeste 49 Este 0 -- -- 50
2021-01-16 11:00:00 18.9 19 Nordeste 40 Este 0 -- -- 51
2021-01-16 10:00:00 18.1 14 Nordeste 33 Nordeste 0 -- -- 53
2021-01-16 09:00:00 15.4 8 Norte 25 Nordeste 0 -- -- 61
2021-01-16 08:00:00 15.7 13 Nordeste 26 Nordeste 0 -- -- 63
2021-01-16 07:00:00 16.5 12 Nordeste 39 Este 0 -- -- 59
2021-01-16 06:00:00 16.3 14 Nordeste 41 Este 0 -- -- 60
2021-01-16 05:00:00 16.1 12 Nordeste 28 Norte 0 -- -- 57
2021-01-16 04:00:00 15.7 11 Nordeste 29 Nordeste 0 -- -- 62
2021-01-16 03:00:00 15.5 7 Norte 25 Nordeste 0 -- -- 64
2021-01-16 02:00:00 16.8 13 Nordeste 30 Nordeste 0 -- -- 54
2021-01-16 01:00:00 16.6 9 Norte 37 Este 0 -- -- 55
2021-01-16 00:00:00 16.5 16 Nordeste 33 Nordeste 0 -- -- 59
2021-01-15 23:00:00 16.9 21 Nordeste 40 Nordeste 0 -- -- 58
2021-01-15 22:00:00 17.4 10 Nordeste 50 Nordeste 0 -- -- 56
2021-01-15 21:00:00 16.8 15 Nordeste 30 Nordeste 0 -- -- 55
2021-01-15 20:00:00 16.9 13 Nordeste 35 Nordeste 0 -- -- 56
2021-01-15 19:00:00 17.5 15 Nordeste 31 Este 0 -- -- 58
2021-01-15 18:00:00 18.5 15 Nordeste 32 Nordeste 0 -- -- 56
2021-01-15 17:00:00 19.1 18 Nordeste 43 Este 0 -- -- 50
2021-01-15 16:00:00 19.2 22 Nordeste 46 Nordeste 0 -- -- 51
2021-01-15 15:00:00 19.6 20 Este 45 Nordeste 0 -- -- 53
2021-01-15 14:00:00 19.2 18 Nordeste 40 Este 0 -- -- 51
2021-01-15 13:00:00 18 19 Nordeste 39 Este 0 -- -- 59
2021-01-15 12:00:00 18.8 13 Nordeste 35 Nordeste 0 -- -- 51
2021-01-15 11:00:00 17.7 14 Nordeste 35 Norte 0 -- -- 57
2021-01-15 10:00:00 17.3 21 Nordeste 42 Nordeste 0 -- -- 54
2021-01-15 09:00:00 16.4 13 Nordeste 30 Este 0 -- -- 55
2021-01-15 08:00:00 16.4 17 Nordeste 31 Nordeste 0 -- -- 59
2021-01-15 07:00:00 16.8 14 Este 37 Norte 0 -- -- 60
2021-01-15 06:00:00 16.8 23 Nordeste 42 Nordeste 0 -- -- 52
2021-01-15 05:00:00 16.2 17 Nordeste 35 Nordeste 0 -- -- 58
2021-01-15 04:00:00 16.7 18 Nordeste 40 Nordeste 0 -- -- 51
2021-01-15 03:00:00 16.6 22 Nordeste 37 Nordeste 0 -- -- 57
2021-01-15 02:00:00 16.7 14 Nordeste 39 Nordeste 0 -- -- 58
2021-01-15 01:00:00 16.9 18 Nordeste 38 Este 0 -- -- 61
2021-01-15 00:00:00 16.9 15 Nordeste 27 Nordeste 0 -- -- 59
2021-01-14 23:00:00 16.9 17 Nordeste 33 Nordeste 0 -- -- 47
2021-01-14 22:00:00 16.8 13 Nordeste 28 Este 0 -- -- 54
2021-01-14 21:00:00 17 13 Nordeste 28 Nordeste 0 -- -- 59
2021-01-14 20:00:00 17 12 Nordeste 27 Este 0 -- -- 62
2021-01-14 19:00:00 17.2 14 Nordeste 29 Nordeste 0 -- -- 61
2021-01-14 18:00:00 17.3 13 Nordeste 26 Nordeste 0 -- -- 61
2021-01-14 17:00:00 17.4 10 Nordeste 28 Este 0 -- -- 59
2021-01-14 16:00:00 17.4 12 Nordeste 23 Este 0 -- -- 62
2021-01-14 15:00:00 17.4 13 Nordeste 24 Nordeste 0 -- -- 59
2021-01-14 14:00:00 17.4 10 Este 24 Este 0 -- -- 59
2021-01-14 13:00:00 17.4 10 Nordeste 25 Este 0 -- -- 63
2021-01-14 12:00:00 17.5 9 Este 27 Nordeste 0 -- -- 63
2021-01-14 11:00:00 17.5 9 Este 30 Este 0 -- -- 62
2021-01-14 10:00:00 17.6 12 Este 28 Este 0 -- -- 62
2021-01-14 09:00:00 16.9 10 Nordeste 26 Este 0 -- -- 62
2021-01-14 08:00:00 16.1 11 Nordeste 22 Nordeste 0 -- -- 65
2021-01-14 07:00:00 15.8 7 Nordeste 18 Nordeste 0 -- -- 64
2021-01-14 06:00:00 15.8 8 Nordeste 19 Nordeste 0 -- -- 66
2021-01-14 05:00:00 16 8 Nordeste 20 Nordeste 0 -- -- 68
2021-01-14 04:00:00 16.1 10 Nordeste 22 Nordeste 0 -- -- 67
2021-01-14 03:00:00 16.2 8 Nordeste 22 Nordeste 0 -- -- 68
2021-01-14 02:00:00 15.8 7 Nordeste 18 Nordeste 0 -- -- 65
2021-01-14 01:00:00 15.3 4 Este 13 Nordeste 0 -- -- 54
2021-01-14 00:00:00 16.5 6 Este 14 Este 0 -- -- 54
2021-01-13 23:00:00 16.5 6 Este 23 Nordeste 0 -- -- 59
2021-01-13 22:00:00 16.8 9 Nordeste 26 Nordeste 0 -- -- 65
2021-01-13 21:00:00 17 12 Nordeste 21 Nordeste 0 -- -- 59
2021-01-13 20:00:00 17 8 Nordeste 22 Sudeste 0 -- -- 53
2021-01-13 19:00:00 17.3 10 Este 25 Nordeste 0 -- -- 55
2021-01-13 18:00:00 18 13 Nordeste 33 Nordeste 0 -- -- 49
2021-01-13 17:00:00 18.9 18 Nordeste 43 Nordeste 0 -- -- 50
2021-01-13 16:00:00 19.3 17 Nordeste 43 Este 0 -- -- 50
2021-01-13 15:00:00 19.4 19 Nordeste 42 Nordeste 0 -- -- 49
2021-01-13 14:00:00 19.1 19 Nordeste 44 Este 0 -- -- 52
2021-01-13 13:00:00 18.5 17 Nordeste 35 Nordeste 0 -- -- 60
2021-01-13 12:00:00 17.8 15 Nordeste 33 Nordeste 0 -- -- 65
2021-01-13 11:00:00 16.5 12 Nordeste 28 Nordeste 0.2 -- -- 72
2021-01-13 10:00:00 15.5 9 Nordeste 25 Nordeste 0.4 -- -- 81
2021-01-13 09:00:00 15.2 13 Nordeste 24 Nordeste 2.4 -- -- 82
2021-01-13 08:00:00 15.8 9 Nordeste 26 Nordeste 0.4 -- -- 77
2021-01-13 07:00:00 16.6 13 Nordeste 27 Nordeste 0 -- -- 70
2021-01-13 06:00:00 16.3 8 Nordeste 25 Este 0 -- -- 70
2021-01-13 05:00:00 16.1 10 Nordeste 26 Este 0 -- -- 68
2021-01-13 04:00:00 15.8 7 Nordeste 19 Nordeste 0 -- -- 70
2021-01-13 03:00:00 16.5 8 Nordeste 21 Este 0 -- -- 67
2021-01-13 02:00:00 16.5 9 Nordeste 19 Nordeste 0 -- -- 70
2021-01-13 01:00:00 15.9 4 Norte 12 Nordeste 0 -- -- 63
2021-01-13 00:00:00 16.6 4 Noroeste 19 Este 0 -- -- 62
2021-01-12 23:00:00 16.8 10 Nordeste 25 Norte 0 -- -- 66
2021-01-12 22:00:00 16.6 6 Este 20 Este 0 -- -- 63
2021-01-12 21:00:00 16.4 4 Este 10 Nordeste 0 -- -- 64
2021-01-12 20:00:00 16.9 0 Calma 24 Norte 0 -- -- 65
2021-01-12 19:00:00 17.2 13 Nordeste 33 Nordeste 0 -- -- 59
2021-01-12 18:00:00 17.8 5 Noroeste 22 Este 0 -- -- 63
2021-01-12 17:00:00 18.2 10 Este 28 Este 0 -- -- 53
2021-01-12 16:00:00 17.2 15 Sudeste 24 Sudeste 0 -- -- 67
2021-01-12 15:00:00 16.5 2 Este 25 Nordeste 0.2 -- -- 73
2021-01-12 14:00:00 16 12 Este 34 Nordeste 0 -- -- 76
2021-01-12 13:00:00 18.6 14 Este 27 Este 0 -- -- 53
2021-01-12 12:00:00 17.5 16 Este 32 Este 0 -- -- 70
2021-01-12 11:00:00 18.5 12 Este 30 Nordeste 0 -- -- 54
2021-01-12 10:00:00 17.3 5 Nordeste 27 Norte 0 -- -- 54
2021-01-12 09:00:00 15.2 14 Nordeste 28 Nordeste 0 -- -- 67
2021-01-12 08:00:00 15.2 4 Este 18 Nordeste 0 -- -- 73
2021-01-12 07:00:00 15.6 8 Nordeste 16 Nordeste 0 -- -- 63
2021-01-12 06:00:00 15.4 4 Nordeste 12 Norte 0 -- -- 57
2021-01-12 05:00:00 14.8 3 Norte 6 Nordeste 0 -- -- 60
2021-01-12 04:00:00 15.1 3 Noroeste 9 Noroeste 0 -- -- 59
2021-01-12 03:00:00 15.9 4 Oeste 13 Noroeste 0 -- -- 60
2021-01-12 02:00:00 16.5 6 Oeste 12 Norte 0 -- -- 56
2021-01-12 01:00:00 16.3 4 Oeste 9 Oeste 0 -- -- 61
2021-01-12 00:00:00 16.5 6 Norte 22 Este 0 -- -- 60
2021-01-11 23:00:00 16.1 6 Nordeste 24 Nordeste 0 -- -- 66
2021-01-11 22:00:00 16.4 10 Nordeste 21 Nordeste 0 -- -- 64
2021-01-11 21:00:00 16.6 8 Norte 22 Sudeste 0 -- -- 64
2021-01-11 20:00:00 16.6 7 Este 29 Nordeste 0 -- -- 62
2021-01-11 19:00:00 16.7 8 Este 18 Este 0 -- -- 63
2021-01-11 18:00:00 17.8 2 Sur 8 Sudoeste 0 -- -- 56
2021-01-11 17:00:00 18.1 4 Oeste 20 Nordeste 0 -- -- 56
2021-01-11 16:00:00 19 7 Noroeste 20 Sudoeste 0 -- -- 52
2021-01-11 15:00:00 19.4 11 Sur 25 Sudoeste 0 -- -- 50
2021-01-11 14:00:00 19.7 11 Sur 22 Sudoeste 0 -- -- 47
2021-01-11 13:00:00 20 13 Sur 23 Sudoeste 0 -- -- 45
2021-01-11 12:00:00 19.8 12 Sur 23 Sudoeste 0 -- -- 43
2021-01-11 11:00:00 18.4 10 Sudeste 18 Sudeste 0 -- -- 48
2021-01-11 10:00:00 17.6 3 Este 11 Oeste 0 -- -- 48
2021-01-11 09:00:00 15 6 Noroeste 10 Noroeste 0 -- -- 59
2021-01-11 08:00:00 14.2 6 Noroeste 10 Noroeste 0 -- -- 65
2021-01-11 07:00:00 14.5 5 Noroeste 9 Noroeste 0 -- -- 70
2021-01-11 06:00:00 14.5 4 Este 11 Oeste 0 -- -- 71
2021-01-11 05:00:00 14.5 5 Noroeste 9 Norte 0 -- -- 70
2021-01-11 04:00:00 14.4 3 Este 12 Norte 0 -- -- 68
2021-01-11 03:00:00 14.9 5 Norte 13 Noroeste 0 -- -- 66
2021-01-11 02:00:00 15.1 2 Este 9 Noroeste 0 -- -- 65
2021-01-11 01:00:00 15.4 5 Este 11 Este 0 -- -- 66
2021-01-11 00:00:00 16 3 Nordeste 11 Este 0 -- -- 61
2021-01-10 23:00:00 16.2 3 Sudeste 10 Norte 0 -- -- 54
2021-01-10 22:00:00 17 6 Nordeste 19 Noroeste 0 -- -- 49
2021-01-10 21:00:00 17.6 12 Noroeste 17 Noroeste 0 -- -- 46
2021-01-10 20:00:00 17.9 8 Sudeste 13 Sudeste 0 -- -- 57
2021-01-10 19:00:00 17.9 6 Sur 18 Sur 0 -- -- 49
2021-01-10 18:00:00 18.5 8 Sudeste 17 Sudeste 0 -- -- 55
2021-01-10 17:00:00 19.1 7 Sudeste 23 Este 0 -- -- 54
2021-01-10 16:00:00 18.6 12 Sudeste 22 Sudeste 0 -- -- 55
2021-01-10 15:00:00 18.9 9 Sudeste 23 Sudeste 0 -- -- 57
2021-01-10 14:00:00 18.7 16 Sudeste 25 Sudeste 0 -- -- 54
2021-01-10 13:00:00 18.4 9 Sudeste 20 Sudeste 0 -- -- 54
2021-01-10 12:00:00 18.8 12 Sudeste 18 Sudeste 0 -- -- 55
2021-01-10 11:00:00 18.1 5 Este 16 Sudeste 0 -- -- 59
2021-01-10 10:00:00 17.9 4 Este 8 Nordeste 0 -- -- 56
2021-01-10 09:00:00 15.2 6 Norte 18 Norte 0 -- -- 65
2021-01-10 08:00:00 14.7 5 Noroeste 13 Norte 0 -- -- 66
2021-01-10 07:00:00 14.1 5 Oeste 14 Noroeste 0 -- -- 70
2021-01-10 06:00:00 14.3 3 Nordeste 10 Noroeste 0 -- -- 69
2021-01-10 05:00:00 14.3 0 Calma 9 Noroeste 0 -- -- 62
2021-01-10 04:00:00 14.2 0 Calma 8 Norte 0 -- -- 61
2021-01-10 03:00:00 14.4 2 Norte 9 Norte 0 -- -- 59
2021-01-10 02:00:00 14.5 3 Norte 10 Noroeste 0 -- -- 58
2021-01-10 01:00:00 15 4 Noroeste 9 Oeste 0 -- -- 56
2021-01-10 00:00:00 15.2 5 Noroeste 10 Noroeste 0 -- -- 54
2021-01-09 23:00:00 14.9 0 Calma 10 Noroeste 0 -- -- 57
2021-01-09 22:00:00 15.6 5 Noroeste 10 Oeste 0 -- -- 53
2021-01-09 21:00:00 16 5 Norte 15 Noroeste 0 -- -- 53
2021-01-09 20:00:00 16.1 5 Sudoeste 14 Este 0 -- -- 58
2021-01-09 19:00:00 16.9 4 Sudeste 14 Noroeste 0 -- -- 55
2021-01-09 18:00:00 18.6 10 Noroeste 28 Noroeste 0 -- -- 40
2021-01-09 17:00:00 18.7 9 Este 23 Este 0 -- -- 49
2021-01-09 16:00:00 19.8 7 Este 22 Sudeste 0 -- -- 44
2021-01-09 15:00:00 19.3 12 Sudeste 35 Oeste 0 -- -- 46
2021-01-09 14:00:00 19.8 19 Noroeste 30 Oeste 0 -- -- 37
2021-01-09 13:00:00 18.8 11 Sudeste 25 Este 0 -- -- 48
2021-01-09 12:00:00 19.2 9 Este 24 Sudeste 0 -- -- 48
2021-01-09 11:00:00 18.7 10 Este 17 Este 0 -- -- 48
2021-01-09 10:00:00 18.7 4 Sur 8 Oeste 0 -- -- 47
2021-01-09 09:00:00 15.5 4 Noroeste 13 Norte 0 -- -- 63
2021-01-09 08:00:00 14.6 3 Noroeste 22 Oeste 0 -- -- 62
2021-01-09 07:00:00 15.6 13 Noroeste 28 Noroeste 0 -- -- 51
2021-01-09 06:00:00 15.1 5 Noroeste 18 Oeste 0 -- -- 59
2021-01-09 05:00:00 14.6 9 Noroeste 19 Oeste 0.2 -- -- 66
2021-01-09 04:00:00 15.1 5 Oeste 13 Noroeste 0 -- -- 69
2021-01-09 03:00:00 15.3 5 Noroeste 9 Noroeste 0 -- -- 70
2021-01-09 02:00:00 15.8 3 Sudoeste 8 Oeste 0 -- -- 70
2021-01-09 01:00:00 16.2 5 Noroeste 9 Oeste 0 -- -- 69
2021-01-09 00:00:00 16.6 3 Nordeste 13 Sudeste 0 -- -- 67
2021-01-08 23:00:00 16.6 3 Sudoeste 11 Sudoeste 0 -- -- 63
2021-01-08 22:00:00 16.5 5 Oeste 9 Oeste 0 -- -- 69
2021-01-08 21:00:00 17.2 9 Este 23 Norte 0 -- -- 64
2021-01-08 20:00:00 18.1 13 Noroeste 25 Noroeste 0 -- -- 51
2021-01-08 19:00:00 18.3 7 Oeste 12 Oeste 0 -- -- 71
2021-01-08 18:00:00 18.9 6 Sudoeste 9 Este 0 -- -- 65
2021-01-08 17:00:00 18.9 6 Sudeste 17 Este 0 -- -- 70
2021-01-08 16:00:00 19.6 10 Este 44 Este 0 -- -- 65
2021-01-08 15:00:00 22.6 17 Sudoeste 30 Sudoeste 0 -- -- 49
2021-01-08 14:00:00 21.9 18 Sudoeste 37 Sudoeste 0 -- -- 54
2021-01-08 13:00:00 22.1 18 Sudoeste 32 Oeste 0 -- -- 50
2021-01-08 12:00:00 20.4 11 Sudeste 21 Este 0 -- -- 69
2021-01-08 11:00:00 21.2 8 Este 18 Norte 0 -- -- 65
2021-01-08 10:00:00 20.2 6 Noroeste 19 Oeste 0 -- -- 66
2021-01-08 09:00:00 19 9 Oeste 22 Oeste 0 -- -- 71
2021-01-08 08:00:00 18.3 10 Oeste 22 Oeste 0 -- -- 71
2021-01-08 07:00:00 18.8 16 Oeste 42 Oeste 0 -- -- 73
2021-01-08 06:00:00 18.5 17 Oeste 48 Oeste 0 -- -- 81
2021-01-08 05:00:00 18.8 22 Oeste 44 Oeste 0 -- -- 80
2021-01-08 04:00:00 19.1 28 Oeste 45 Oeste 0 -- -- 82
2021-01-08 03:00:00 19.3 28 Oeste 48 Oeste 0.4 -- -- 82
2021-01-08 02:00:00 19.6 22 Oeste 42 Oeste 0 -- -- 85
2021-01-08 01:00:00 19.6 24 Oeste 48 Oeste 0 -- -- 86
2021-01-08 00:00:00 19.7 21 Oeste 43 Oeste 0 -- -- 87
2021-01-07 23:00:00 19.7 22 Sudoeste 45 Oeste 2.2 -- -- 91
2021-01-07 22:00:00 19.3 24 Sudoeste 54 Oeste 3.4 -- -- 92
2021-01-07 21:00:00 20.4 18 Sudoeste 39 Sudoeste 0 -- -- 90
2021-01-07 20:00:00 20.5 18 Oeste 41 Oeste 0 -- -- 88
2021-01-07 19:00:00 20.6 21 Sudoeste 42 Sudoeste 0 -- -- 88
2021-01-07 18:00:00 20.8 16 Oeste 43 Oeste 0 -- -- 87
2021-01-07 17:00:00 21.1 24 Oeste 45 Oeste 0 -- -- 85
2021-01-07 16:00:00 21.2 21 Oeste 41 Sudoeste 0 -- -- 86
2021-01-07 15:00:00 21.6 24 Oeste 55 Oeste 0 -- -- 84
2021-01-07 14:00:00 21.7 30 Oeste 50 Oeste 0 -- -- 81
2021-01-07 13:00:00 21.4 26 Sudoeste 63 Oeste 0.2 -- -- 81
2021-01-07 12:00:00 21.2 26 Sudoeste 47 Sudoeste 0 -- -- 85
2021-01-07 11:00:00 21 22 Sudoeste 41 Sudoeste 0 -- -- 86
2021-01-07 10:00:00 20.8 20 Sudoeste 41 Sudoeste 0 -- -- 87
2021-01-07 09:00:00 20.3 19 Sudoeste 41 Sudoeste 0 -- -- 90
2021-01-07 08:00:00 19.7 18 Oeste 55 Sudoeste 0.2 -- -- 91
2021-01-07 07:00:00 19.8 21 Sudoeste 38 Sudoeste 0 -- -- 91
2021-01-07 06:00:00 19.8 20 Sudoeste 36 Oeste 0 -- -- 91
2021-01-07 05:00:00 19.9 21 Sudoeste 40 Sudoeste 0 -- -- 92
2021-01-07 04:00:00 19.7 16 Oeste 32 Sudoeste 0 -- -- 93
2021-01-07 03:00:00 19.6 15 Oeste 38 Sudoeste 0 -- -- 92
2021-01-07 02:00:00 20.1 18 Sudoeste 37 Sudoeste 0 -- -- 92
2021-01-07 01:00:00 20.1 17 Oeste 33 Oeste 0 -- -- 92
2021-01-07 00:00:00 20 16 Oeste 32 Oeste 0 -- -- 92
2021-01-06 23:00:00 20 16 Oeste 33 Oeste 0 -- -- 92
2021-01-06 22:00:00 20 19 Oeste 33 Oeste 0 -- -- 91
2021-01-06 21:00:00 20.1 21 Oeste 41 Oeste 0 -- -- 90
2021-01-06 20:00:00 20.3 23 Oeste 42 Oeste 0 -- -- 87
2021-01-06 19:00:00 20.1 24 Oeste 49 Oeste 0.2 -- -- 89
2021-01-06 18:00:00 20.4 24 Oeste 56 Oeste 0 -- -- 87
2021-01-06 17:00:00 20.1 28 Oeste 53 Oeste 0.4 -- -- 91
2021-01-06 16:00:00 20.9 27 Oeste 48 Oeste 0 -- -- 88
2021-01-06 15:00:00 20.7 21 Oeste 44 Sudoeste 0.2 -- -- 91
2021-01-06 14:00:00 21.2 23 Sudoeste 48 Sudoeste 0 -- -- 87
2021-01-06 13:00:00 21.6 22 Oeste 45 Oeste 0 -- -- 86
2021-01-06 12:00:00 22.1 21 Oeste 48 Oeste 0 -- -- 83
2021-01-06 11:00:00 22.1 23 Sudoeste 52 Sudoeste 0 -- -- 84
2021-01-06 10:00:00 21.2 25 Sudoeste 48 Sudoeste 0 -- -- 87
2021-01-06 09:00:00 20.3 22 Sudoeste 46 Sudoeste 0 -- -- 90
2021-01-06 08:00:00 20 22 Sudoeste 43 Sudoeste 0 -- -- 91
2021-01-06 07:00:00 19.9 21 Sudoeste 34 Sudoeste 0 -- -- 91
2021-01-06 06:00:00 19.7 17 Oeste 31 Oeste 0 -- -- 91
2021-01-06 05:00:00 19.6 17 Oeste 33 Sudoeste 0 -- -- 91
2021-01-06 04:00:00 19.4 14 Oeste 31 Oeste 0 -- -- 91
2021-01-06 03:00:00 19.3 15 Oeste 27 Oeste 0 -- -- 90
2021-01-06 02:00:00 19.6 14 Oeste 26 Oeste 0 -- -- 91
2021-01-06 01:00:00 19.4 10 Oeste 26 Oeste 0 -- -- 90
2021-01-06 00:00:00 19.4 12 Sudoeste 25 Sudoeste 0 -- -- 91
2021-01-05 23:00:00 19.5 10 Oeste 22 Sudoeste 0 -- -- 91
2021-01-05 22:00:00 19.5 12 Sudoeste 19 Oeste 0 -- -- 91
2021-01-05 21:00:00 19.7 9 Oeste 23 Sudoeste 0 -- -- 91
2021-01-05 20:00:00 19.7 10 Sudoeste 24 Oeste 0.2 -- -- 90
2021-01-05 19:00:00 19.8 12 Oeste 28 Oeste 0 -- -- 85
2021-01-05 18:00:00 20.6 16 Oeste 36 Oeste 0 -- -- 81
2021-01-05 17:00:00 21.3 19 Oeste 36 Oeste 0 -- -- 79
2021-01-05 16:00:00 21.2 17 Oeste 37 Oeste 0.2 -- -- 85
2021-01-05 15:00:00 22.4 21 Oeste 39 Oeste 0 -- -- 76
2021-01-05 14:00:00 21.2 17 Oeste 40 Sudoeste 0 -- -- 80
2021-01-05 13:00:00 22.2 19 Oeste 40 Oeste 0 -- -- 73
2021-01-05 12:00:00 21.4 19 Oeste 35 Oeste 0 -- -- 76
2021-01-05 11:00:00 20.8 14 Sudoeste 31 Oeste 0 -- -- 80
2021-01-05 10:00:00 20.7 17 Oeste 30 Oeste 0 -- -- 77
2021-01-05 09:00:00 19.5 14 Oeste 23 Noroeste 0 -- -- 83
2021-01-05 08:00:00 18.7 7 Oeste 16 Oeste 0 -- -- 89
2021-01-05 07:00:00 18.8 9 Oeste 16 Oeste 0 -- -- 90
2021-01-05 06:00:00 18.9 4 Noroeste 22 Oeste 0 -- -- 89
2021-01-05 05:00:00 19.1 9 Oeste 18 Oeste 0 -- -- 91
2021-01-05 04:00:00 19.4 10 Oeste 20 Oeste 0.2 -- -- 92
2021-01-05 03:00:00 19.4 12 Oeste 24 Oeste 0 -- -- 91
2021-01-05 02:00:00 18.6 9 Noroeste 19 Oeste 0 -- -- 91
2021-01-05 01:00:00 18.2 11 Oeste 17 Noroeste 0 -- -- 92
2021-01-05 00:00:00 18.1 10 Oeste 22 Oeste 0.8 -- -- 92
2021-01-04 23:00:00 18.5 8 Oeste 22 Sudoeste 0 -- -- 85
2021-01-04 22:00:00 18.2 9 Oeste 25 Oeste 0 -- -- 82
2021-01-04 21:00:00 18.1 10 Oeste 22 Oeste 0 -- -- 81
2021-01-04 20:00:00 18.2 12 Oeste 24 Oeste 0 -- -- 78
2021-01-04 19:00:00 18.3 10 Oeste 27 Oeste 0 -- -- 77
2021-01-04 18:00:00 18.5 14 Oeste 24 Sudoeste 0 -- -- 76
2021-01-04 17:00:00 18.6 13 Sudoeste 24 Sudoeste 0 -- -- 75
2021-01-04 16:00:00 18.6 14 Sudoeste 24 Sudoeste 0 -- -- 75
2021-01-04 15:00:00 19 14 Sudoeste 27 Sudoeste 0 -- -- 72
2021-01-04 14:00:00 19.2 12 Sudoeste 26 Sur 0 -- -- 70
2021-01-04 13:00:00 19.4 14 Sudoeste 25 Sur 0 -- -- 69
2021-01-04 12:00:00 18.8 13 Sur 23 Sudoeste 0 -- -- 70
2021-01-04 11:00:00 18.4 9 Sur 21 Sur 0 -- -- 71
2021-01-04 10:00:00 18.1 9 Sur 17 Sur 0 -- -- 73
2021-01-04 09:00:00 17.8 5 Sur 18 Sudeste 0 -- -- 73
2021-01-04 08:00:00 17.4 4 Sur 10 Sur 0 -- -- 75
2021-01-04 07:00:00 17.2 0 Calma 8 Norte 0 -- -- 70
2021-01-04 06:00:00 17.1 0 Calma 6 Noroeste 0 -- -- 70
2021-01-04 05:00:00 17 4 Norte 9 Noroeste 0 -- -- 69
2021-01-04 04:00:00 17.3 7 Noroeste 11 Noroeste 0 -- -- 68
2021-01-04 03:00:00 17.1 3 Norte 11 Nordeste 0 -- -- 70
2021-01-04 02:00:00 16.8 5 Nordeste 8 Norte 0 -- -- 69
2021-01-04 01:00:00 17 4 Nordeste 8 Nordeste 0 -- -- 67
2021-01-04 00:00:00 17 3 Nordeste 8 Norte 0 -- -- 67
2021-01-03 23:00:00 17 4 Nordeste 11 Este 0 -- -- 66
2021-01-03 22:00:00 17.5 6 Nordeste 10 Nordeste 0 -- -- 64
2021-01-03 21:00:00 17.9 5 Nordeste 12 Nordeste 0 -- -- 63
2021-01-03 20:00:00 18 5 Este 16 Sudeste 0 -- -- 65
2021-01-03 19:00:00 18.1 7 Este 18 Este 0 -- -- 63
2021-01-03 18:00:00 18.3 7 Este 19 Este 0 -- -- 63
2021-01-03 17:00:00 18.6 8 Este 21 Este 0 -- -- 61
2021-01-03 16:00:00 18.6 11 Este 27 Este 0 -- -- 62
2021-01-03 15:00:00 18.9 10 Este 22 Este 0 -- -- 62
2021-01-03 14:00:00 18.7 8 Este 21 Este 0 -- -- 62
2021-01-03 13:00:00 19 7 Este 17 Nordeste 0 -- -- 61
2021-01-03 12:00:00 18.7 8 Este 15 Este 0 -- -- 62
2021-01-03 11:00:00 18.3 7 Nordeste 16 Este 0 -- -- 63
2021-01-03 10:00:00 18 4 Este 10 Este 0 -- -- 62
2021-01-03 09:00:00 16.8 3 Nordeste 8 Noroeste 0 -- -- 62
2021-01-03 08:00:00 16.5 3 Norte 10 Nordeste 0 -- -- 64
2021-01-03 07:00:00 16.5 4 Nordeste 13 Nordeste 0 -- -- 67
2021-01-03 06:00:00 16.4 5 Norte 16 Este 0 -- -- 67
2021-01-03 05:00:00 16.9 8 Nordeste 19 Nordeste 0 -- -- 66
2021-01-03 04:00:00 17.2 9 Nordeste 18 Este 0 -- -- 63
2021-01-03 03:00:00 17.3 10 Nordeste 18 Nordeste 0 -- -- 64
2021-01-03 02:00:00 17.2 8 Nordeste 18 Este 0 -- -- 64
2021-01-03 01:00:00 17.5 9 Nordeste 23 Norte 0 -- -- 65
2021-01-03 00:00:00 17.5 10 Nordeste 24 Nordeste 0 -- -- 65
2021-01-02 23:00:00 17.6 6 Este 19 Nordeste 0 -- -- 60
2021-01-02 22:00:00 17.6 9 Nordeste 21 Nordeste 0 -- -- 59
2021-01-02 21:00:00 17.9 9 Nordeste 22 Nordeste 0 -- -- 61
2021-01-02 20:00:00 17.8 9 Nordeste 24 Nordeste 0 -- -- 64
2021-01-02 19:00:00 17.8 9 Nordeste 20 Este 0 -- -- 64
2021-01-02 18:00:00 18.6 8 Este 22 Este 0 -- -- 65
2021-01-02 17:00:00 19.4 4 Oeste 28 Este 0 -- -- 56
2021-01-02 16:00:00 19.5 15 Nordeste 30 Nordeste 0 -- -- 52
2021-01-02 15:00:00 19.7 14 Este 32 Este 0 -- -- 53
2021-01-02 14:00:00 19.6 13 Este 31 Este 0 -- -- 54
2021-01-02 13:00:00 19.8 15 Este 34 Sudeste 0 -- -- 53